MUJ weather

Mui River Airport
Omo National Park, Southern Nations, Nationalities and Peoples, Ethiopia

Public forecast

Using degrees Celsius for public forecast. Weather courtesy of forecast.io.

METAR (pilot weather report)

Report is more than 6 hours old.

Closest report is Juba International Airport, 255.0 nm (472.2 km) WSW. Retrieved 2019/02/10 11:00 UTC (6 days ago):

HSSJ 101100Z 09009KT 9999 FEW040 39/05 Q1008

TAF (pilot weather forecast)

Forecast is more than 12 hours old.

Closest forecast is Pachella Airport, 126.2 nm (233.7 km) NW. Retrieved 2015/03/08 06:00 UTC (4 years ago):

TAF HSPA 080400Z 0806/0912 VRB03KT 9999 SCT040 BKN140 BECMG 0809/0811 09005G15KT CAVOK TEMPO 0711/0714 12006KT 9999 SCT040 BKN140